Time;durP1;ratioP1;P1;durP2;ratioP2;P2;SDS_P1;SDS_P2;PMS_P1;PMS_P2;Temp;Humidity;BMP_temperature;BMP_pressure;BME280_temperature;BME280_humidity;BME280_pressure;Samples;Min_cycle;Max_cycle;Signal;HPM_P1;HPM_P2
2024/04/06 00:01:57;;;;;;;2.83;1.30;;;16.60;56.60;;;;;;5033943;28;20232;-55
2024/04/06 00:04:24;;;;;;;1.60;1.37;;;16.60;56.70;;;;;;5031644;28;20202;-55
2024/04/06 00:06:50;;;;;;;3.63;1.40;;;16.60;56.70;;;;;;5030968;28;20557;-54
2024/04/06 00:09:17;;;;;;;1.77;1.37;;;16.60;56.70;;;;;;5033151;28;20207;-56
2024/04/06 00:11:44;;;;;;;1.37;1.23;;;16.60;56.70;;;;;;5033548;28;20250;-56
2024/04/06 00:14:11;;;;;;;2.77;1.33;;;16.50;56.70;;;;;;5034388;28;20635;-56
2024/04/06 00:16:36;;;;;;;1.83;1.40;;;16.50;56.70;;;;;;5033369;28;20194;-56
2024/04/06 00:19:03;;;;;;;3.17;1.33;;;16.50;56.70;;;;;;5033225;28;20212;-56
2024/04/06 00:21:29;;;;;;;2.33;1.30;;;16.60;56.70;;;;;;5033981;28;20709;-56
2024/04/06 00:23:56;;;;;;;1.60;1.37;;;16.50;56.70;;;;;;5034705;28;20206;-57
2024/04/06 00:26:21;;;;;;;1.40;1.30;;;16.50;56.70;;;;;;5036832;28;20222;-57
2024/04/06 00:28:50;;;;;;;1.60;1.30;;;16.50;56.70;;;;;;5032934;28;20206;-56
2024/04/06 00:31:16;;;;;;;1.63;1.20;;;16.50;56.70;;;;;;5032289;28;20228;-56
2024/04/06 00:33:42;;;;;;;1.73;1.50;;;16.50;56.70;;;;;;5033922;28;20286;-56
2024/04/06 00:36:08;;;;;;;2.03;1.50;;;16.60;56.70;;;;;;5030507;28;20203;-57
2024/04/06 00:38:36;;;;;;;1.30;1.20;;;16.50;56.70;;;;;;5031821;28;20217;-56
2024/04/06 00:41:03;;;;;;;1.23;1.10;;;16.50;56.70;;;;;;5033872;28;20218;-57
2024/04/06 00:43:31;;;;;;;1.17;1.07;;;16.60;56.70;;;;;;5037760;28;20194;-56
2024/04/06 00:45:58;;;;;;;3.40;1.30;;;16.50;56.70;;;;;;5033469;28;20226;-56
2024/04/06 00:48:25;;;;;;;1.30;1.20;;;16.50;56.70;;;;;;5033154;28;20202;-56
2024/04/06 00:50:53;;;;;;;2.73;1.27;;;16.50;56.70;;;;;;5032278;28;20222;-56
2024/04/06 00:53:20;;;;;;;1.53;1.13;;;16.50;56.70;;;;;;5033384;28;20205;-56
2024/04/06 00:55:46;;;;;;;2.60;1.37;;;16.50;56.70;;;;;;5032420;28;20203;-57
2024/04/06 00:58:13;;;;;;;1.83;1.20;;;16.50;56.70;;;;;;5031828;28;20210;-56
2024/04/06 01:00:39;;;;;;;1.50;1.30;;;16.50;56.70;;;;;;5032216;28;20233;-56
2024/04/06 01:03:07;;;;;;;1.30;1.20;;;16.50;56.70;;;;;;5032395;28;20202;-57
2024/04/06 01:05:32;;;;;;;1.10;1.10;;;16.50;56.70;;;;;;5026423;28;20233;-56
2024/04/06 01:07:59;;;;;;;2.90;1.27;;;16.50;56.70;;;;;;5032454;28;20195;-56
2024/04/06 01:10:27;;;;;;;1.60;1.20;;;16.50;56.70;;;;;;5032466;28;20232;-56
2024/04/06 01:12:53;;;;;;;1.47;1.20;;;16.50;56.70;;;;;;5033262;28;20198;-56
2024/04/06 01:15:19;;;;;;;1.47;1.30;;;16.50;56.70;;;;;;5032600;28;20210;-56
2024/04/06 01:17:46;;;;;;;1.47;1.00;;;16.50;56.70;;;;;;5031835;28;20199;-56
2024/04/06 01:20:14;;;;;;;1.43;1.17;;;16.50;56.70;;;;;;5031915;28;20230;-57
2024/04/06 01:22:41;;;;;;;1.30;1.20;;;16.50;56.70;;;;;;5032642;28;20206;-56
2024/04/06 01:25:08;;;;;;;1.10;1.00;;;16.50;56.70;;;;;;5030879;28;20230;-56
2024/04/06 01:27:35;;;;;;;0.90;0.90;;;16.50;56.70;;;;;;5032361;28;20213;-56
2024/04/06 01:30:01;;;;;;;1.50;1.10;;;16.50;56.70;;;;;;5032931;28;20206;-56
2024/04/06 01:32:28;;;;;;;1.77;1.37;;;16.50;56.70;;;;;;5032450;28;20207;-56
2024/04/06 01:34:53;;;;;;;1.30;1.20;;;16.50;56.70;;;;;;5032827;28;20206;-57
2024/04/06 01:37:20;;;;;;;1.80;1.30;;;16.50;56.70;;;;;;5031089;28;20205;-56
2024/04/06 01:39:46;;;;;;;1.57;1.23;;;16.50;56.70;;;;;;5032739;28;20720;-56
2024/04/06 01:42:14;;;;;;;1.13;1.03;;;16.50;56.60;;;;;;5027143;28;20210;-56
2024/04/06 01:44:40;;;;;;;1.30;1.20;;;16.50;56.70;;;;;;5031852;28;20235;-56
2024/04/06 01:47:07;;;;;;;1.63;1.20;;;16.50;56.70;;;;;;5038313;28;20875;-57
2024/04/06 01:49:33;;;;;;;1.50;1.40;;;16.50;56.70;;;;;;5027191;28;20261;-56
2024/04/06 01:51:59;;;;;;;1.43;1.10;;;16.50;56.70;;;;;;5031454;28;20690;-57
2024/04/06 01:54:25;;;;;;;1.83;1.60;;;16.50;56.70;;;;;;5031935;28;20667;-56
2024/04/06 01:56:52;;;;;;;1.53;1.10;;;16.50;56.70;;;;;;5031057;28;20209;-56
2024/04/06 01:59:19;;;;;;;1.30;1.20;;;16.50;56.70;;;;;;5031591;28;20207;-56
2024/04/06 02:01:46;;;;;;;1.63;1.40;;;16.50;56.60;;;;;;5031550;28;20312;-56
2024/04/06 02:04:12;;;;;;;1.30;1.20;;;16.50;56.70;;;;;;5029987;28;20599;-56
2024/04/06 02:06:38;;;;;;;1.73;1.33;;;16.50;56.70;;;;;;5031260;28;20230;-56
2024/04/06 02:09:04;;;;;;;1.20;1.10;;;16.50;56.70;;;;;;5032370;28;20566;-56
2024/04/06 02:11:31;;;;;;;1.47;1.37;;;16.50;56.70;;;;;;5030612;28;20222;-56
2024/04/06 02:13:58;;;;;;;1.40;1.20;;;16.50;56.70;;;;;;5032047;28;20313;-56
2024/04/06 02:16:25;;;;;;;1.30;1.20;;;16.50;56.70;;;;;;5031054;28;20210;-56
2024/04/06 02:18:51;;;;;;;1.73;1.23;;;16.50;56.60;;;;;;5030977;28;20213;-56
2024/04/06 02:21:17;;;;;;;2.43;1.27;;;16.50;56.70;;;;;;5031999;28;20226;-56
2024/04/06 02:23:44;;;;;;;1.40;1.30;;;16.50;56.70;;;;;;5034674;28;20202;-56
2024/04/06 02:26:10;;;;;;;1.40;1.30;;;16.50;56.70;;;;;;5035690;28;20230;-56
2024/04/06 02:28:36;;;;;;;2.10;1.20;;;16.50;56.70;;;;;;5027229;28;20286;-57
2024/04/06 02:31:03;;;;;;;2.00;1.30;;;16.50;56.70;;;;;;5026115;28;20227;-57
2024/04/06 02:33:31;;;;;;;2.80;1.33;;;16.40;56.50;;;;;;5032119;28;20198;-56
2024/04/06 02:35:57;;;;;;;1.77;1.30;;;16.50;56.70;;;;;;5031823;28;20195;-56
2024/04/06 02:38:24;;;;;;;1.90;1.10;;;16.50;56.70;;;;;;5030657;28;20554;-56
2024/04/06 02:40:49;;;;;;;2.83;1.20;;;16.50;57.30;;;;;;5029879;28;20222;-56
2024/04/06 02:43:16;;;;;;;1.30;1.20;;;16.40;56.60;;;;;;5031397;28;20678;-56
2024/04/06 02:45:42;;;;;;;1.30;1.20;;;16.50;56.70;;;;;;5030784;28;20230;-57
2024/04/06 02:48:09;;;;;;;2.03;1.33;;;16.40;56.60;;;;;;5030144;28;20202;-57
2024/04/06 02:50:36;;;;;;;1.93;1.30;;;16.50;56.70;;;;;;5037510;28;20227;-57
2024/04/06 02:53:04;;;;;;;1.30;1.20;;;16.50;56.70;;;;;;5031067;28;20211;-57
2024/04/06 02:55:30;;;;;;;1.37;1.27;;;16.50;56.70;;;;;;5030498;28;20203;-56
2024/04/06 02:57:56;;;;;;;1.30;1.20;;;16.50;56.70;;;;;;5030795;28;20562;-56
2024/04/06 03:00:22;;;;;;;1.63;1.07;;;16.50;56.70;;;;;;5031410;28;20230;-57
2024/04/06 03:02:49;;;;;;;1.20;1.10;;;16.50;56.70;;;;;;5030620;28;20221;-57
2024/04/06 03:05:16;;;;;;;0.90;0.90;;;16.50;56.70;;;;;;5028649;28;20211;-57
2024/04/06 03:07:44;;;;;;;1.27;1.17;;;16.50;56.70;;;;;;5031168;28;20211;-57
2024/04/06 03:10:10;;;;;;;1.43;1.20;;;16.40;56.60;;;;;;5028833;28;20226;-57
2024/04/06 03:12:37;;;;;;;1.63;1.20;;;16.40;56.60;;;;;;5030956;28;20280;-57
2024/04/06 03:15:05;;;;;;;1.97;1.50;;;16.50;56.70;;;;;;5030818;28;20214;-57
2024/04/06 03:17:32;;;;;;;1.17;1.00;;;16.50;56.70;;;;;;5030402;28;20194;-57
2024/04/06 03:19:58;;;;;;;2.33;1.33;;;16.50;56.70;;;;;;5030551;28;20215;-57
2024/04/06 03:22:24;;;;;;;1.50;1.40;;;16.40;56.60;;;;;;5039411;28;20260;-57
2024/04/06 03:24:53;;;;;;;1.50;1.20;;;16.40;56.60;;;;;;5033598;28;20240;-56
2024/04/06 03:27:20;;;;;;;1.33;1.23;;;16.50;56.70;;;;;;5034113;28;20316;-57
2024/04/06 03:29:45;;;;;;;1.20;1.10;;;16.50;56.80;;;;;;5037067;28;20202;-57
2024/04/06 03:32:12;;;;;;;1.40;1.30;;;16.40;56.60;;;;;;5039138;28;20208;-57
2024/04/06 03:34:38;;;;;;;1.33;1.10;;;16.40;56.70;;;;;;5034538;28;20202;-57
2024/04/06 03:37:04;;;;;;;1.30;1.20;;;16.40;56.60;;;;;;5034303;28;20209;-57
2024/04/06 03:39:32;;;;;;;1.30;1.20;;;16.50;56.70;;;;;;5034854;28;20218;-57
2024/04/06 03:41:59;;;;;;;1.20;1.10;;;16.40;56.60;;;;;;5032770;28;20718;-57
2024/04/06 03:44:26;;;;;;;1.43;1.20;;;16.40;56.70;;;;;;5034977;28;20276;-57
2024/04/06 03:46:52;;;;;;;1.47;1.10;;;16.40;56.70;;;;;;5034082;28;20244;-57
2024/04/06 03:49:19;;;;;;;1.23;1.13;;;16.40;56.60;;;;;;5034411;28;20206;-57
2024/04/06 03:51:45;;;;;;;1.53;1.13;;;16.40;56.70;;;;;;5034405;28;20232;-57
2024/04/06 03:54:11;;;;;;;1.37;1.27;;;16.40;56.60;;;;;;5033985;28;20578;-57
2024/04/06 03:56:37;;;;;;;1.37;1.10;;;16.40;56.70;;;;;;5032927;28;20194;-57
2024/04/06 03:59:06;;;;;;;1.30;1.00;;;16.40;56.70;;;;;;5034157;28;20670;-56
2024/04/06 04:01:32;;;;;;;1.97;1.10;;;16.40;56.70;;;;;;5025344;28;20222;-56
2024/04/06 04:03:58;;;;;;;1.40;1.30;;;16.40;56.70;;;;;;5033900;28;20655;-56
2024/04/06 04:06:24;;;;;;;1.53;1.30;;;16.40;56.70;;;;;;5034208;28;20229;-57
2024/04/06 04:08:51;;;;;;;1.33;1.23;;;16.40;56.70;;;;;;5034177;28;20572;-57
2024/04/06 04:11:17;;;;;;;1.40;1.30;;;16.40;56.60;;;;;;5032142;28;20241;-57
2024/04/06 04:13:43;;;;;;;1.07;1.00;;;16.40;56.70;;;;;;5033638;28;20643;-57
2024/04/06 04:16:10;;;;;;;1.50;1.37;;;16.40;56.70;;;;;;5033524;28;20203;-57
2024/04/06 04:18:37;;;;;;;1.30;1.20;;;16.40;56.80;;;;;;5031049;28;20217;-57
2024/04/06 04:21:03;;;;;;;1.40;1.20;;;16.40;57.50;;;;;;5035221;28;20234;-56
2024/04/06 04:23:30;;;;;;;2.27;1.20;;;16.40;57.00;;;;;;5034060;28;20717;-56
2024/04/06 04:25:56;;;;;;;2.20;1.43;;;16.40;57.00;;;;;;5033751;28;20234;-56
2024/04/06 04:28:22;;;;;;;2.93;1.20;;;16.40;57.00;;;;;;5033199;28;20222;-56
2024/04/06 04:30:48;;;;;;;2.20;1.20;;;16.40;57.00;;;;;;5035485;28;20699;-56
2024/04/06 04:33:17;;;;;;;1.90;1.10;;;16.40;56.90;;;;;;5038416;28;20206;-56
2024/04/06 04:35:43;;;;;;;1.30;1.13;;;16.40;57.60;;;;;;5034591;28;20218;-56
2024/04/06 04:38:10;;;;;;;2.67;1.10;;;16.40;57.00;;;;;;5039783;28;20213;-57
2024/04/06 04:40:36;;;;;;;2.00;1.07;;;16.30;57.00;;;;;;5033488;28;20238;-56
2024/04/06 04:43:04;;;;;;;1.70;1.20;;;16.30;57.00;;;;;;5034369;28;20202;-56
2024/04/06 04:45:30;;;;;;;1.37;1.23;;;16.30;57.00;;;;;;5033439;28;20667;-57
2024/04/06 04:47:57;;;;;;;1.20;1.10;;;16.40;57.00;;;;;;5032142;28;20257;-68
2024/04/06 04:58:11;;;;;;;1.30;1.20;;;16.30;57.00;;;;;;5967213;22;20240;-55
2024/04/06 05:00:37;;;;;;;1.40;1.30;;;16.30;57.00;;;;;;5046450;28;20249;-56
2024/04/06 05:03:04;;;;;;;1.60;1.03;;;16.30;57.00;;;;;;5038966;28;20251;-56
2024/04/06 05:05:30;;;;;;;2.20;1.20;;;16.30;57.00;;;;;;5045347;28;20202;-56
2024/04/06 05:07:57;;;;;;;1.33;1.10;;;16.30;57.00;;;;;;5046016;28;20230;-56
2024/04/06 05:10:23;;;;;;;1.00;1.00;;;16.30;57.00;;;;;;5038379;28;20229;-56
2024/04/06 05:12:49;;;;;;;1.93;1.27;;;16.30;57.00;;;;;;5041258;28;20209;-55
2024/04/06 05:15:17;;;;;;;2.00;1.10;;;16.30;57.00;;;;;;5046455;28;20202;-56
2024/04/06 05:17:43;;;;;;;1.40;1.10;;;16.30;57.00;;;;;;5046922;28;20209;-56
2024/04/06 05:20:10;;;;;;;2.13;1.30;;;16.30;57.00;;;;;;5050128;28;20213;-56
2024/04/06 05:22:36;;;;;;;1.17;1.07;;;16.30;57.00;;;;;;5049679;28;20621;-56
2024/04/06 05:25:03;;;;;;;1.40;1.30;;;16.30;56.90;;;;;;5037885;28;20256;-56
2024/04/06 05:27:29;;;;;;;1.73;1.03;;;16.30;56.90;;;;;;5035214;28;20225;-56
2024/04/06 05:29:56;;;;;;;1.30;1.20;;;16.30;57.00;;;;;;5041291;28;20195;-56
2024/04/06 05:32:23;;;;;;;2.70;1.40;;;16.30;56.90;;;;;;5038778;28;20212;-56
2024/04/06 05:34:50;;;;;;;0.90;0.90;;;16.30;56.90;;;;;;5027310;28;20197;-56
2024/04/06 05:37:15;;;;;;;1.60;1.20;;;16.30;56.90;;;;;;5035276;28;20202;-56
2024/04/06 05:39:42;;;;;;;1.20;1.10;;;16.30;56.90;;;;;;5034062;28;20213;-56
2024/04/06 05:42:08;;;;;;;1.90;1.27;;;16.30;56.90;;;;;;5046835;28;20706;-56
2024/04/06 05:44:35;;;;;;;1.20;1.10;;;16.30;56.90;;;;;;5039204;28;20204;-57
2024/04/06 05:47:01;;;;;;;1.33;1.23;;;16.30;56.90;;;;;;5035793;28;20714;-56
2024/04/06 05:49:29;;;;;;;1.60;1.20;;;16.30;56.90;;;;;;5040625;28;20202;-56
2024/04/06 05:51:54;;;;;;;1.90;1.10;;;16.40;56.90;;;;;;5046933;28;20233;-55
2024/04/06 05:54:21;;;;;;;1.20;1.10;;;16.30;56.80;;;;;;5038403;28;20202;-56
2024/04/06 05:56:47;;;;;;;1.10;1.00;;;16.30;56.80;;;;;;5034140;28;20210;-56
2024/04/06 05:59:14;;;;;;;2.37;1.30;;;16.40;56.80;;;;;;5036276;28;20202;-56
2024/04/06 06:01:40;;;;;;;2.57;1.37;;;16.40;56.70;;;;;;5042623;28;20263;-56
2024/04/06 06:04:07;;;;;;;2.23;1.40;;;16.40;56.80;;;;;;5039146;28;20280;-56
2024/04/06 06:06:34;;;;;;;2.70;1.27;;;16.40;56.80;;;;;;5042630;28;20230;-56
2024/04/06 06:09:01;;;;;;;1.53;1.30;;;16.40;56.80;;;;;;5046940;28;20220;-56
2024/04/06 06:11:27;;;;;;;2.90;1.40;;;16.40;56.80;;;;;;5031727;28;20221;-56
2024/04/06 06:13:54;;;;;;;2.60;1.60;;;16.40;57.30;;;;;;5035854;28;20567;-57
2024/04/06 06:16:20;;;;;;;2.33;1.30;;;16.40;57.30;;;;;;5041692;28;20202;-56
2024/04/06 06:18:46;;;;;;;2.23;1.50;;;16.40;57.30;;;;;;5033812;28;20203;-56
2024/04/06 06:21:12;;;;;;;2.57;1.40;;;16.50;57.50;;;;;;5043599;28;20229;-56
2024/04/06 06:23:40;;;;;;;2.53;1.40;;;16.40;57.50;;;;;;5049308;28;20205;-56
2024/04/06 06:26:06;;;;;;;4.87;1.47;;;16.50;57.60;;;;;;5029947;28;20571;-56
2024/04/06 06:28:33;;;;;;;1.87;1.70;;;16.40;57.60;;;;;;5044743;28;20209;-55
2024/04/06 06:31:00;;;;;;;2.07;1.63;;;16.40;57.70;;;;;;5039465;28;20306;-55
2024/04/06 06:33:28;;;;;;;2.17;1.60;;;16.50;58.00;;;;;;5046046;28;20198;-56
2024/04/06 06:35:53;;;;;;;2.67;1.50;;;16.50;58.10;;;;;;5039932;28;20210;-56
2024/04/06 06:38:20;;;;;;;1.73;1.43;;;16.60;57.70;;;;;;5045613;28;20220;-56
2024/04/06 06:40:49;;;;;;;1.50;1.40;;;16.60;57.50;;;;;;5027998;28;20704;-56
2024/04/06 06:43:15;;;;;;;2.70;1.67;;;16.60;57.30;;;;;;5035058;28;20206;-56
2024/04/06 06:45:42;;;;;;;2.93;1.67;;;16.70;57.30;;;;;;5045427;28;20278;-56
2024/04/06 06:48:08;;;;;;;1.63;1.53;;;16.70;57.20;;;;;;5045143;28;20221;-57
2024/04/06 06:50:34;;;;;;;2.83;1.50;;;16.80;57.10;;;;;;5035575;28;20237;-57
2024/04/06 06:53:01;;;;;;;5.47;2.07;;;16.80;57.00;;;;;;5035910;28;20237;-56
2024/04/06 06:55:27;;;;;;;8.33;2.10;;;16.90;56.90;;;;;;5036596;28;20206;-58
2024/04/06 06:57:55;;;;;;;3.70;2.00;;;16.90;56.70;;;;;;5039328;28;20674;-56
2024/04/06 07:00:21;;;;;;;13.07;2.20;;;17.00;56.60;;;;;;5035313;28;20228;-56
2024/04/06 07:02:47;;;;;;;4.67;2.20;;;17.00;56.50;;;;;;5035483;28;20206;-53
2024/04/06 07:05:14;;;;;;;8.63;2.23;;;17.00;56.50;;;;;;5032771;28;20212;-55
2024/04/06 07:07:40;;;;;;;5.53;1.67;;;17.00;56.60;;;;;;5043931;28;20304;-56
2024/04/06 07:10:07;;;;;;;6.30;2.30;;;17.10;56.50;;;;;;5047759;28;20229;-56
2024/04/06 07:12:33;;;;;;;8.30;2.27;;;17.10;56.50;;;;;;5038021;28;20630;-57
2024/04/06 07:15:01;;;;;;;8.00;2.53;;;17.20;56.50;;;;;;5042545;28;20202;-57
2024/04/06 07:17:27;;;;;;;6.83;1.97;;;17.30;56.80;;;;;;5040047;28;20199;-55
2024/04/06 07:19:54;;;;;;;7.17;2.03;;;17.30;56.60;;;;;;5032064;28;20668;-54
2024/04/06 07:22:19;;;;;;;4.97;2.10;;;17.30;56.50;;;;;;5047698;28;20570;-54
2024/04/06 07:24:46;;;;;;;3.27;2.50;;;17.40;56.30;;;;;;5047852;28;20206;-55
2024/04/06 07:27:12;;;;;;;7.47;2.20;;;17.50;56.30;;;;;;5023092;28;20224;-55
2024/04/06 07:29:40;;;;;;;7.30;2.67;;;17.50;56.10;;;;;;5045402;28;20293;-55
2024/04/06 07:32:07;;;;;;;5.10;1.90;;;17.50;56.00;;;;;;5041506;28;20226;-55
2024/04/06 07:34:34;;;;;;;8.87;2.70;;;17.60;55.80;;;;;;5048737;28;20217;-55
2024/04/06 07:36:59;;;;;;;8.90;2.77;;;17.60;56.30;;;;;;5039849;28;20208;-55
2024/04/06 07:39:26;;;;;;;7.17;3.00;;;17.60;55.90;;;;;;5032642;28;20213;-55
2024/04/06 07:41:52;;;;;;;9.27;3.10;;;17.70;55.90;;;;;;5040482;28;20222;-55
2024/04/06 07:44:19;;;;;;;8.47;3.40;;;17.70;55.70;;;;;;5048933;28;20210;-54
2024/04/06 07:46:45;;;;;;;7.17;2.73;;;17.80;55.50;;;;;;5045226;28;20224;-55
2024/04/06 07:49:13;;;;;;;7.73;2.50;;;17.80;55.30;;;;;;5047272;28;20562;-55
2024/04/06 07:51:40;;;;;;;3.87;2.20;;;17.80;54.50;;;;;;5036340;28;20227;-55
2024/04/06 07:54:07;;;;;;;3.87;2.47;;;17.90;54.20;;;;;;5048569;28;20263;-55
2024/04/06 07:56:33;;;;;;;5.23;2.63;;;17.90;53.00;;;;;;5036340;28;20206;-57
2024/04/06 07:59:00;;;;;;;5.27;2.50;;;18.00;52.80;;;;;;5047705;28;20289;-54
2024/04/06 08:01:26;;;;;;;12.23;2.63;;;18.10;53.60;;;;;;5041942;28;20226;-54
2024/04/06 08:03:53;;;;;;;4.37;2.50;;;18.10;53.60;;;;;;5039593;28;20202;-54
2024/04/06 08:06:20;;;;;;;3.93;1.70;;;18.10;54.10;;;;;;5038878;28;20559;-55
2024/04/06 08:08:47;;;;;;;2.50;2.10;;;18.20;52.30;;;;;;5038180;28;20210;-54
2024/04/06 08:11:13;;;;;;;2.33;2.03;;;18.30;52.90;;;;;;5035131;28;20230;-54
2024/04/06 08:13:40;;;;;;;4.70;1.70;;;18.30;53.00;;;;;;5052202;28;20251;-56
2024/04/06 08:16:06;;;;;;;3.67;1.90;;;18.40;52.50;;;;;;5051461;28;20205;-55
2024/04/06 08:18:33;;;;;;;3.80;1.80;;;18.40;54.00;;;;;;5047591;28;20280;-55
2024/04/06 08:20:58;;;;;;;2.67;1.67;;;18.50;51.90;;;;;;5047936;28;20234;-54
2024/04/06 08:23:26;;;;;;;2.53;1.60;;;18.50;52.50;;;;;;5054936;28;20208;-54
2024/04/06 08:25:53;;;;;;;2.77;1.50;;;18.50;52.50;;;;;;5038332;28;20574;-55
2024/04/06 08:28:20;;;;;;;3.33;1.70;;;18.50;52.00;;;;;;5037599;28;20636;-54
2024/04/06 08:30:46;;;;;;;3.03;1.80;;;18.50;52.00;;;;;;5054336;28;20619;-54
2024/04/06 08:33:13;;;;;;;1.37;1.27;;;18.50;52.00;;;;;;5047459;28;20205;-55
2024/04/06 08:35:39;;;;;;;3.03;1.70;;;18.50;52.10;;;;;;5048820;28;20216;-55
2024/04/06 08:38:06;;;;;;;3.90;1.70;;;18.50;52.10;;;;;;5054083;28;20559;-55
2024/04/06 08:40:39;;;;;;;1.67;1.57;;;18.50;52.10;;;;;;5041915;28;20219;-55
2024/04/06 08:43:11;;;;;;;2.57;1.50;;;18.50;52.10;;;;;;5052497;28;20208;-55
2024/04/06 08:45:38;;;;;;;2.97;1.57;;;18.50;52.40;;;;;;5054457;28;20220;-55
2024/04/06 08:48:08;;;;;;;1.83;1.50;;;18.50;52.30;;;;;;5053763;28;20317;-55
2024/04/06 08:50:34;;;;;;;2.53;1.40;;;18.50;52.30;;;;;;5047541;28;20237;-55
2024/04/06 08:53:01;;;;;;;2.03;1.60;;;18.50;52.30;;;;;;5054016;28;20206;-54
2024/04/06 08:55:27;;;;;;;1.50;1.27;;;18.50;52.10;;;;;;5047941;28;20203;-55
2024/04/06 08:57:55;;;;;;;2.40;1.37;;;18.50;51.10;;;;;;5049408;28;20735;-55
2024/04/06 09:00:26;;;;;;;3.70;1.70;;;18.50;50.50;;;;;;5053863;28;20219;-55
2024/04/06 09:02:53;;;;;;;2.53;1.77;;;18.60;50.10;;;;;;5054143;28;20197;-55
2024/04/06 09:05:19;;;;;;;3.87;1.33;;;18.60;50.60;;;;;;5042220;28;20217;-55
2024/04/06 09:07:48;;;;;;;1.63;1.00;;;18.60;50.80;;;;;;5051440;28;20225;-55
2024/04/06 09:10:13;;;;;;;3.03;1.43;;;18.70;50.70;;;;;;5049981;28;20235;-55
2024/04/06 09:12:40;;;;;;;1.63;1.33;;;18.70;50.80;;;;;;5054089;28;20206;-55
2024/04/06 09:15:12;;;;;;;1.43;1.17;;;18.70;50.70;;;;;;5047533;28;20202;-55
2024/04/06 09:17:39;;;;;;;1.60;1.30;;;18.70;50.40;;;;;;5053111;28;20610;-54
2024/04/06 09:20:07;;;;;;;1.37;1.27;;;18.70;50.50;;;;;;5038575;28;20207;-55
2024/04/06 09:22:34;;;;;;;1.67;1.30;;;18.70;50.50;;;;;;5052643;28;20205;-54
2024/04/06 09:25:07;;;;;;;4.07;1.70;;;18.70;50.60;;;;;;5050015;28;20211;-54
2024/04/06 09:27:34;;;;;;;5.50;1.30;;;18.70;50.70;;;;;;5038352;28;20221;-54
2024/04/06 09:30:00;;;;;;;6.53;1.60;;;18.70;50.90;;;;;;5038087;28;20639;-55
2024/04/06 09:32:30;;;;;;;3.53;1.73;;;18.70;50.50;;;;;;5044520;28;20203;-54
2024/04/06 09:34:56;;;;;;;3.27;1.47;;;18.70;50.70;;;;;;5041841;28;20293;-55
2024/04/06 09:37:33;;;;;;;1.93;1.50;;;18.70;50.90;;;;;;5043027;28;20194;-55
2024/04/06 09:40:00;;;;;;;2.23;1.93;;;18.70;51.10;;;;;;5049447;28;20699;-54
2024/04/06 09:42:27;;;;;;;4.57;1.40;;;18.70;51.20;;;;;;5036712;28;20202;-54
2024/04/06 09:44:53;;;;;;;2.20;1.60;;;18.60;51.30;;;;;;5047728;28;20209;-54
2024/04/06 09:47:22;;;;;;;1.50;1.40;;;18.60;51.40;;;;;;5039708;28;20343;-54
2024/04/06 09:49:50;;;;;;;3.50;1.30;;;18.60;51.50;;;;;;5044437;28;20212;-54
2024/04/06 09:52:18;;;;;;;1.93;1.20;;;18.50;51.70;;;;;;5039863;28;20203;-54
2024/04/06 09:54:45;;;;;;;2.70;1.30;;;18.50;51.80;;;;;;5033451;28;20309;-54
2024/04/06 09:57:13;;;;;;;4.40;1.60;;;18.50;51.90;;;;;;5047663;28;20198;-54
2024/04/06 09:59:40;;;;;;;3.20;1.47;;;18.50;52.00;;;;;;5040972;28;20216;-54
2024/04/06 10:02:08;;;;;;;4.43;1.40;;;18.50;52.10;;;;;;5041018;28;20222;-54
2024/04/06 10:04:36;;;;;;;2.87;1.40;;;18.50;52.10;;;;;;5048862;28;20206;-54
2024/04/06 10:07:05;;;;;;;2.03;1.13;;;18.50;52.20;;;;;;5052282;28;20579;-54
2024/04/06 10:09:31;;;;;;;2.90;1.40;;;18.50;52.20;;;;;;5049247;28;20206;-54
2024/04/06 10:11:59;;;;;;;3.60;1.50;;;18.40;52.20;;;;;;5048849;28;20248;-54
2024/04/06 10:14:26;;;;;;;3.13;1.50;;;18.50;52.30;;;;;;5052809;28;20210;-55
2024/04/06 10:17:05;;;;;;;1.10;1.10;;;18.40;52.30;;;;;;5052378;28;20202;-54
2024/04/06 10:19:31;;;;;;;2.10;1.30;;;18.50;52.50;;;;;;5047049;28;20198;-55
2024/04/06 10:22:04;;;;;;;1.40;1.10;;;18.50;52.50;;;;;;5052282;28;20732;-54
2024/04/06 10:24:30;;;;;;;1.47;1.33;;;18.50;53.20;;;;;;5047166;28;20256;-54
2024/04/06 10:26:58;;;;;;;3.63;1.30;;;18.40;52.50;;;;;;5047694;28;20605;-54
2024/04/06 10:29:24;;;;;;;2.40;1.20;;;18.50;52.60;;;;;;5051901;28;20210;-54
2024/04/06 10:31:51;;;;;;;1.60;1.47;;;18.40;52.60;;;;;;5052516;28;20355;-54
2024/04/06 10:34:17;;;;;;;1.20;1.10;;;18.50;52.70;;;;;;5035576;28;20211;-54
2024/04/06 10:36:44;;;;;;;1.77;1.20;;;18.40;52.60;;;;;;5051553;28;20203;-54
2024/04/06 10:39:11;;;;;;;1.87;1.30;;;18.40;52.60;;;;;;5046283;28;20221;-54
2024/04/06 10:41:39;;;;;;;1.33;1.20;;;18.40;52.60;;;;;;5047914;28;20226;-54
2024/04/06 10:44:05;;;;;;;1.30;1.20;;;18.40;52.70;;;;;;5052270;28;20290;-54
2024/04/06 10:46:33;;;;;;;1.83;1.10;;;18.40;52.70;;;;;;5052033;28;20285;-54
2024/04/06 10:48:59;;;;;;;1.90;1.20;;;18.40;52.70;;;;;;5039606;28;20241;-54
2024/04/06 10:51:27;;;;;;;1.57;1.10;;;18.40;52.80;;;;;;5051679;28;20217;-54
2024/04/06 10:53:53;;;;;;;1.53;1.20;;;18.40;52.80;;;;;;5044544;28;20213;-54
2024/04/06 10:56:21;;;;;;;1.30;1.03;;;18.40;52.80;;;;;;5047231;28;20198;-54
2024/04/06 10:58:47;;;;;;;2.07;1.10;;;18.40;52.80;;;;;;5051238;28;20210;-54
2024/04/06 11:01:18;;;;;;;1.10;1.00;;;18.40;52.90;;;;;;5051965;28;20228;-54
2024/04/06 11:03:47;;;;;;;1.47;1.37;;;18.40;52.90;;;;;;5052048;28;20208;-54
2024/04/06 11:06:14;;;;;;;1.30;1.10;;;18.40;52.90;;;;;;5034789;28;20206;-54
2024/04/06 11:08:40;;;;;;;2.33;1.17;;;18.40;53.50;;;;;;5042910;28;20243;-54
2024/04/06 11:11:08;;;;;;;1.57;0.93;;;18.40;52.90;;;;;;5046539;28;20222;-54
2024/04/06 11:13:39;;;;;;;1.97;1.37;;;18.40;53.00;;;;;;5051732;28;20608;-54
2024/04/06 11:16:06;;;;;;;0.80;0.80;;;18.40;52.90;;;;;;5044314;28;20641;-55
2024/04/06 11:18:39;;;;;;;1.80;1.00;;;18.40;52.90;;;;;;5038225;28;20203;-55
2024/04/06 11:21:09;;;;;;;2.20;1.30;;;18.40;52.90;;;;;;5047834;28;20222;-54
2024/04/06 11:23:35;;;;;;;2.43;1.20;;;18.40;52.90;;;;;;5042867;28;20213;-54
2024/04/06 11:26:02;;;;;;;2.00;1.13;;;18.40;52.90;;;;;;5046552;28;20204;-54
2024/04/06 11:28:28;;;;;;;1.93;1.10;;;18.40;52.90;;;;;;5051015;28;20579;-54
2024/04/06 11:30:58;;;;;;;2.23;1.20;;;18.40;53.00;;;;;;5037240;28;20704;-54
2024/04/06 11:33:24;;;;;;;1.00;0.90;;;18.50;53.10;;;;;;5045942;28;20659;-54
2024/04/06 11:35:50;;;;;;;1.30;1.10;;;18.50;53.10;;;;;;5039074;28;20212;-54
2024/04/06 11:38:16;;;;;;;1.83;1.13;;;18.50;53.10;;;;;;5041136;28;20575;-54
2024/04/06 11:40:47;;;;;;;1.83;1.30;;;18.50;53.10;;;;;;5045905;28;20221;-54
2024/04/06 11:43:12;;;;;;;1.10;1.00;;;18.50;53.10;;;;;;5052203;28;20198;-54
2024/04/06 11:45:39;;;;;;;4.10;1.63;;;18.50;53.10;;;;;;5041636;28;20209;-54
2024/04/06 11:48:08;;;;;;;2.53;1.30;;;18.50;52.10;;;;;;5027742;28;20223;-55
2024/04/06 11:50:33;;;;;;;1.30;1.20;;;18.60;51.70;;;;;;5032257;28;20227;-54
2024/04/06 11:53:00;;;;;;;1.63;1.47;;;18.60;50.90;;;;;;5039478;28;20583;-55
2024/04/06 11:55:26;;;;;;;2.47;1.20;;;18.70;49.70;;;;;;5033150;28;20203;-54
2024/04/06 11:57:53;;;;;;;1.67;1.33;;;18.70;49.60;;;;;;5051917;28;20212;-54
2024/04/06 12:00:19;;;;;;;3.60;1.80;;;18.70;49.60;;;;;;5044890;28;20601;-54
2024/04/06 12:02:45;;;;;;;1.93;1.37;;;18.80;49.80;;;;;;5043580;28;20202;-55
2024/04/06 12:05:13;;;;;;;6.43;1.90;;;18.90;48.80;;;;;;5039259;28;20210;-55
2024/04/06 12:07:40;;;;;;;2.93;1.27;;;19.00;48.60;;;;;;5041581;28;20250;-54
2024/04/06 12:10:06;;;;;;;1.73;1.37;;;19.00;48.30;;;;;;5048750;28;20205;-54
2024/04/06 12:12:33;;;;;;;2.70;1.40;;;19.10;47.20;;;;;;5054092;28;20210;-54
2024/04/06 12:14:59;;;;;;;2.87;1.50;;;19.10;47.20;;;;;;5047361;28;20213;-54
2024/04/06 12:17:27;;;;;;;4.33;1.57;;;19.20;47.90;;;;;;5040617;28;20201;-55
2024/04/06 12:19:54;;;;;;;2.40;1.60;;;19.10;48.30;;;;;;5047622;28;20210;-55
2024/04/06 12:22:22;;;;;;;3.10;1.40;;;19.10;48.40;;;;;;5046795;28;20241;-55
2024/04/06 12:24:48;;;;;;;2.60;1.60;;;19.10;48.60;;;;;;5050715;28;20216;-55
2024/04/06 12:27:17;;;;;;;2.63;1.70;;;19.10;48.80;;;;;;5046504;28;20735;-55
2024/04/06 12:29:43;;;;;;;4.97;1.73;;;19.10;49.00;;;;;;5049641;28;20288;-55
2024/04/06 12:32:10;;;;;;;4.80;2.20;;;19.10;49.20;;;;;;5049945;28;20256;-55
2024/04/06 12:34:37;;;;;;;3.93;2.10;;;19.00;49.10;;;;;;5040902;28;20208;-55
2024/04/06 12:37:06;;;;;;;5.53;1.70;;;19.10;47.80;;;;;;5045691;28;20202;-54
2024/04/06 12:39:33;;;;;;;3.50;1.77;;;19.10;47.60;;;;;;5050319;28;20225;-55
2024/04/06 12:42:00;;;;;;;2.30;1.60;;;19.10;48.30;;;;;;5046883;28;20248;-55
2024/04/06 12:44:26;;;;;;;3.43;1.40;;;19.10;48.30;;;;;;5052684;28;20198;-55
2024/04/06 12:46:53;;;;;;;2.40;1.43;;;19.10;48.50;;;;;;5053487;28;20208;-55
2024/04/06 12:49:18;;;;;;;4.80;1.77;;;19.00;48.50;;;;;;5050957;28;20703;-54
2024/04/06 12:51:45;;;;;;;9.47;2.10;;;19.00;48.90;;;;;;5045152;28;20221;-54
2024/04/06 12:54:11;;;;;;;3.00;1.40;;;19.10;49.60;;;;;;5048455;28;20209;-54